sensor_id;sensor_type;location;lat;lon;timestamp;pressure;altitude;pressure_sealevel;temperature;humidity
79372;BME280;68914;51.262;6.802;2023-03-29T00:00:11;101410.63;;;19.13;53.27
79372;BME280;68914;51.262;6.802;2023-03-29T00:02:39;101411.81;;;19.05;53.35
79372;BME280;68914;51.262;6.802;2023-03-29T00:05:06;101404.72;;;18.99;53.42
79372;BME280;68914;51.262;6.802;2023-03-29T00:07:32;101403.38;;;18.97;53.13
79372;BME280;68914;51.262;6.802;2023-03-29T00:10:01;101404.31;;;18.90;53.50
79372;BME280;68914;51.262;6.802;2023-03-29T00:12:29;101399.09;;;18.84;53.11
79372;BME280;68914;51.262;6.802;2023-03-29T00:14:55;101400.06;;;18.78;53.60
79372;BME280;68914;51.262;6.802;2023-03-29T00:17:21;101394.47;;;18.67;54.15
79372;BME280;68914;51.262;6.802;2023-03-29T00:19:47;101395.44;;;18.61;54.04
79372;BME280;68914;51.262;6.802;2023-03-29T00:22:12;101389.97;;;18.56;54.08
79372;BME280;68914;51.262;6.802;2023-03-29T00:24:39;101387.22;;;18.51;54.11
79372;BME280;68914;51.262;6.802;2023-03-29T00:27:07;101381.63;;;18.53;54.03
79372;BME280;68914;51.262;6.802;2023-03-29T00:29:35;101379.06;;;18.58;54.17
79372;BME280;68914;51.262;6.802;2023-03-29T00:32:00;101383.69;;;18.74;53.83
79372;BME280;68914;51.262;6.802;2023-03-29T00:34:26;101373.81;;;18.75;53.49
79372;BME280;68914;51.262;6.802;2023-03-29T00:36:56;101382.22;;;18.55;54.04
79372;BME280;68914;51.262;6.802;2023-03-29T00:39:23;101374.31;;;18.48;54.10
79372;BME280;68914;51.262;6.802;2023-03-29T00:41:50;101376.66;;;18.44;54.37
79372;BME280;68914;51.262;6.802;2023-03-29T00:49:53;101370.50;;;18.44;54.31
79372;BME280;68914;51.262;6.802;2023-03-29T00:52:20;101380.84;;;18.40;54.15
79372;BME280;68914;51.262;6.802;2023-03-29T00:54:49;101366.94;;;18.38;54.48
79372;BME280;68914;51.262;6.802;2023-03-29T00:57:18;101371.47;;;18.38;54.59
79372;BME280;68914;51.262;6.802;2023-03-29T00:59:45;101369.34;;;18.40;54.37
79372;BME280;68914;51.262;6.802;2023-03-29T01:02:14;101368.28;;;18.41;54.22
79372;BME280;68914;51.262;6.802;2023-03-29T01:04:45;101365.06;;;18.39;54.31
79372;BME280;68914;51.262;6.802;2023-03-29T01:07:23;101363.44;;;18.38;54.61
79372;BME280;68914;51.262;6.802;2023-03-29T01:09:57;101353.00;;;18.36;54.62
79372;BME280;68914;51.262;6.802;2023-03-29T01:12:31;101356.47;;;18.37;54.11
79372;BME280;68914;51.262;6.802;2023-03-29T01:15:12;101356.59;;;18.42;54.46
79372;BME280;68914;51.262;6.802;2023-03-29T01:17:39;101355.88;;;18.47;54.43
79372;BME280;68914;51.262;6.802;2023-03-29T01:20:18;101348.91;;;18.46;54.47
79372;BME280;68914;51.262;6.802;2023-03-29T01:26:03;101339.09;;;18.34;54.55
79372;BME280;68914;51.262;6.802;2023-03-29T01:28:46;101337.09;;;18.41;54.21
79372;BME280;68914;51.262;6.802;2023-03-29T01:31:24;101327.31;;;18.47;53.89
79372;BME280;68914;51.262;6.802;2023-03-29T01:33:59;101325.78;;;18.51;54.17
79372;BME280;68914;51.262;6.802;2023-03-29T01:36:36;101331.50;;;18.43;54.13
79372;BME280;68914;51.262;6.802;2023-03-29T01:39:04;101326.97;;;18.43;54.53
79372;BME280;68914;51.262;6.802;2023-03-29T01:44:20;101318.88;;;18.38;54.08
79372;BME280;68914;51.262;6.802;2023-03-29T01:46:53;101305.53;;;18.38;54.61
79372;BME280;68914;51.262;6.802;2023-03-29T01:49:25;101314.34;;;18.39;54.56
79372;BME280;68914;51.262;6.802;2023-03-29T01:52:07;101312.03;;;18.31;54.75
79372;BME280;68914;51.262;6.802;2023-03-29T01:54:40;101311.31;;;18.35;54.62
79372;BME280;68914;51.262;6.802;2023-03-29T01:57:08;101313.44;;;18.33;54.80
79372;BME280;68914;51.262;6.802;2023-03-29T01:59:38;101315.50;;;18.31;54.64
79372;BME280;68914;51.262;6.802;2023-03-29T02:02:10;101310.44;;;18.30;54.54
79372;BME280;68914;51.262;6.802;2023-03-29T02:04:40;101306.34;;;18.27;54.67
79372;BME280;68914;51.262;6.802;2023-03-29T02:07:11;101306.09;;;18.29;54.86
79372;BME280;68914;51.262;6.802;2023-03-29T02:09:38;101303.09;;;18.25;54.85
79372;BME280;68914;51.262;6.802;2023-03-29T02:12:06;101293.00;;;18.27;54.34
79372;BME280;68914;51.262;6.802;2023-03-29T02:14:33;101281.53;;;18.27;55.05
79372;BME280;68914;51.262;6.802;2023-03-29T02:17:22;101279.41;;;18.29;54.77
79372;BME280;68914;51.262;6.802;2023-03-29T02:20:08;101267.59;;;18.25;54.85
79372;BME280;68914;51.262;6.802;2023-03-29T02:22:59;101277.25;;;18.26;54.80
79372;BME280;68914;51.262;6.802;2023-03-29T02:25:27;101295.09;;;18.25;54.92
79372;BME280;68914;51.262;6.802;2023-03-29T02:27:54;101310.31;;;18.25;55.06
79372;BME280;68914;51.262;6.802;2023-03-29T02:30:22;101294.53;;;18.23;54.76
79372;BME280;68914;51.262;6.802;2023-03-29T02:33:12;101280.72;;;18.26;54.96
79372;BME280;68914;51.262;6.802;2023-03-29T02:35:59;101270.84;;;18.27;54.48
79372;BME280;68914;51.262;6.802;2023-03-29T02:38:28;101275.38;;;18.26;54.84
79372;BME280;68914;51.262;6.802;2023-03-29T02:40:57;101285.81;;;18.28;54.86
79372;BME280;68914;51.262;6.802;2023-03-29T02:43:26;101293.34;;;18.31;54.57
79372;BME280;68914;51.262;6.802;2023-03-29T02:45:52;101296.84;;;18.31;54.68
79372;BME280;68914;51.262;6.802;2023-03-29T02:48:21;101297.09;;;18.30;54.83
79372;BME280;68914;51.262;6.802;2023-03-29T02:50:50;101280.25;;;18.29;54.17
79372;BME280;68914;51.262;6.802;2023-03-29T02:53:21;101288.72;;;18.26;55.17
79372;BME280;68914;51.262;6.802;2023-03-29T02:55:50;101285.47;;;18.24;54.60
79372;BME280;68914;51.262;6.802;2023-03-29T02:58:16;101284.66;;;18.24;54.81
79372;BME280;68914;51.262;6.802;2023-03-29T03:00:46;101280.84;;;18.19;54.98
79372;BME280;68914;51.262;6.802;2023-03-29T03:03:13;101278.28;;;18.25;55.29
79372;BME280;68914;51.262;6.802;2023-03-29T03:05:40;101275.03;;;18.23;54.95
79372;BME280;68914;51.262;6.802;2023-03-29T03:08:06;101276.66;;;18.24;54.83
79372;BME280;68914;51.262;6.802;2023-03-29T03:10:35;101269.72;;;18.23;55.05
79372;BME280;68914;51.262;6.802;2023-03-29T03:13:02;101260.97;;;18.27;55.21
79372;BME280;68914;51.262;6.802;2023-03-29T03:15:29;101266.56;;;18.26;54.97
79372;BME280;68914;51.262;6.802;2023-03-29T03:17:55;101263.31;;;18.24;55.01
79372;BME280;68914;51.262;6.802;2023-03-29T03:20:21;101263.06;;;18.25;55.12
79372;BME280;68914;51.262;6.802;2023-03-29T03:22:47;101260.09;;;18.22;54.88
79372;BME280;68914;51.262;6.802;2023-03-29T03:25:14;101248.81;;;18.19;54.88
79372;BME280;68914;51.262;6.802;2023-03-29T03:27:41;101246.16;;;18.19;54.95
79372;BME280;68914;51.262;6.802;2023-03-29T03:30:08;101242.53;;;18.26;54.85
79372;BME280;68914;51.262;6.802;2023-03-29T03:32:49;101239.75;;;18.21;54.93
79372;BME280;68914;51.262;6.802;2023-03-29T03:35:21;101246.16;;;18.19;54.91
79372;BME280;68914;51.262;6.802;2023-03-29T03:37:47;101253.09;;;18.21;54.98
79372;BME280;68914;51.262;6.802;2023-03-29T03:40:15;101243.47;;;18.19;54.80
79372;BME280;68914;51.262;6.802;2023-03-29T03:42:41;101251.50;;;18.19;55.35
79372;BME280;68914;51.262;6.802;2023-03-29T03:45:07;101248.56;;;18.21;54.66
79372;BME280;68914;51.262;6.802;2023-03-29T03:47:34;101239.19;;;18.18;55.27
79372;BME280;68914;51.262;6.802;2023-03-29T03:50:16;101244.53;;;18.18;55.03
79372;BME280;68914;51.262;6.802;2023-03-29T03:52:42;101242.94;;;18.17;55.22
79372;BME280;68914;51.262;6.802;2023-03-29T03:55:08;101251.16;;;18.16;55.22
79372;BME280;68914;51.262;6.802;2023-03-29T03:57:45;101245.81;;;18.16;55.33
79372;BME280;68914;51.262;6.802;2023-03-29T04:00:14;101248.25;;;18.17;55.30
79372;BME280;68914;51.262;6.802;2023-03-29T04:03:06;101251.16;;;18.16;54.73
79372;BME280;68914;51.262;6.802;2023-03-29T04:05:32;101242.81;;;18.12;54.96
79372;BME280;68914;51.262;6.802;2023-03-29T04:07:58;101240.47;;;18.16;55.15
79372;BME280;68914;51.262;6.802;2023-03-29T04:10:52;101241.53;;;18.15;55.62
79372;BME280;68914;51.262;6.802;2023-03-29T04:13:23;101239.66;;;18.15;54.94
79372;BME280;68914;51.262;6.802;2023-03-29T04:16:12;101242.22;;;18.22;54.89
79372;BME280;68914;51.262;6.802;2023-03-29T04:18:38;101243.16;;;18.16;54.86
79372;BME280;68914;51.262;6.802;2023-03-29T04:21:03;101248.25;;;18.17;55.03
79372;BME280;68914;51.262;6.802;2023-03-29T04:23:31;101249.28;;;18.16;55.08
79372;BME280;68914;51.262;6.802;2023-03-29T04:25:57;101240.91;;;18.25;55.03
79372;BME280;68914;51.262;6.802;2023-03-29T04:28:49;101244.38;;;18.25;54.85
79372;BME280;68914;51.262;6.802;2023-03-29T04:31:20;101245.78;;;18.28;54.98
79372;BME280;68914;51.262;6.802;2023-03-29T04:34:06;101243.56;;;18.25;54.54
79372;BME280;68914;51.262;6.802;2023-03-29T04:36:32;101230.03;;;18.43;54.15
79372;BME280;68914;51.262;6.802;2023-03-29T04:38:58;101229.78;;;18.44;54.31
79372;BME280;68914;51.262;6.802;2023-03-29T04:41:26;101227.47;;;18.48;54.19
79372;BME280;68914;51.262;6.802;2023-03-29T04:44:09;101232.56;;;18.50;54.19
79372;BME280;68914;51.262;6.802;2023-03-29T04:46:35;101225.38;;;18.50;53.88
79372;BME280;68914;51.262;6.802;2023-03-29T04:49:11;101223.25;;;18.52;53.78
79372;BME280;68914;51.262;6.802;2023-03-29T04:51:40;101224.56;;;18.50;53.88
79372;BME280;68914;51.262;6.802;2023-03-29T04:54:05;101225.94;;;18.52;53.84
79372;BME280;68914;51.262;6.802;2023-03-29T04:56:51;101223.50;;;18.51;54.22
79372;BME280;68914;51.262;6.802;2023-03-29T04:59:35;101214.69;;;18.50;53.90
79372;BME280;68914;51.262;6.802;2023-03-29T05:02:07;101207.16;;;18.47;54.01
79372;BME280;68914;51.262;6.802;2023-03-29T05:04:33;101205.75;;;18.44;53.99
79372;BME280;68914;51.262;6.802;2023-03-29T05:07:05;101210.50;;;18.54;53.71
79372;BME280;68914;51.262;6.802;2023-03-29T05:09:31;101208.47;;;18.61;53.19
79372;BME280;68914;51.262;6.802;2023-03-29T05:11:58;101212.09;;;18.55;53.76
79372;BME280;68914;51.262;6.802;2023-03-29T05:14:24;101207.16;;;18.64;53.61
79372;BME280;68914;51.262;6.802;2023-03-29T05:16:50;101205.09;;;18.66;53.30
79372;BME280;68914;51.262;6.802;2023-03-29T05:19:15;101199.88;;;18.59;53.73
79372;BME280;68914;51.262;6.802;2023-03-29T05:21:46;101194.94;;;18.51;53.85
79372;BME280;68914;51.262;6.802;2023-03-29T05:24:16;101196.31;;;18.54;53.90
79372;BME280;68914;51.262;6.802;2023-03-29T05:26:55;101193.06;;;18.52;53.87
79372;BME280;68914;51.262;6.802;2023-03-29T05:29:21;101191.88;;;18.59;53.69
79372;BME280;68914;51.262;6.802;2023-03-29T05:31:54;101177.47;;;18.60;53.55
79372;BME280;68914;51.262;6.802;2023-03-29T05:34:19;101185.00;;;18.63;53.41
79372;BME280;68914;51.262;6.802;2023-03-29T05:36:49;101183.56;;;18.73;53.65
79372;BME280;68914;51.262;6.802;2023-03-29T05:39:15;101183.72;;;18.66;53.39
79372;BME280;68914;51.262;6.802;2023-03-29T05:41:41;101187.19;;;18.66;53.41
79372;BME280;68914;51.262;6.802;2023-03-29T05:44:28;101179.31;;;18.60;53.44
79372;BME280;68914;51.262;6.802;2023-03-29T05:47:02;101182.81;;;18.60;53.47
79372;BME280;68914;51.262;6.802;2023-03-29T05:49:28;101172.91;;;18.61;53.68
79372;BME280;68914;51.262;6.802;2023-03-29T05:52:07;101177.31;;;18.67;53.41
79372;BME280;68914;51.262;6.802;2023-03-29T05:54:34;101183.38;;;18.62;53.55
79372;BME280;68914;51.262;6.802;2023-03-29T05:57:01;101178.66;;;18.53;53.74
79372;BME280;68914;51.262;6.802;2023-03-29T05:59:26;101182.72;;;18.55;53.58
79372;BME280;68914;51.262;6.802;2023-03-29T06:01:54;101190.19;;;18.53;53.70
79372;BME280;68914;51.262;6.802;2023-03-29T06:04:20;101191.00;;;18.54;53.91
79372;BME280;68914;51.262;6.802;2023-03-29T06:07:11;101187.00;;;18.56;53.76
79372;BME280;68914;51.262;6.802;2023-03-29T06:09:39;101184.00;;;18.53;53.85
79372;BME280;68914;51.262;6.802;2023-03-29T06:12:06;101182.38;;;18.52;53.67
79372;BME280;68914;51.262;6.802;2023-03-29T06:14:35;101175.78;;;18.54;53.95
79372;BME280;68914;51.262;6.802;2023-03-29T06:17:26;101174.78;;;18.60;53.53
79372;BME280;68914;51.262;6.802;2023-03-29T06:19:52;101177.84;;;18.52;53.75
79372;BME280;68914;51.262;6.802;2023-03-29T06:22:20;101181.59;;;18.51;53.78
79372;BME280;68914;51.262;6.802;2023-03-29T06:24:46;101175.44;;;18.51;53.94
79372;BME280;68914;51.262;6.802;2023-03-29T06:27:21;101190.06;;;18.48;54.12
79372;BME280;68914;51.262;6.802;2023-03-29T06:29:48;101194.69;;;18.53;53.74
79372;BME280;68914;51.262;6.802;2023-03-29T06:32:14;101185.66;;;18.54;53.84
79372;BME280;68914;51.262;6.802;2023-03-29T06:34:46;101190.81;;;18.60;53.60
79372;BME280;68914;51.262;6.802;2023-03-29T06:37:29;101195.69;;;18.63;53.39
79372;BME280;68914;51.262;6.802;2023-03-29T06:40:12;101197.34;;;18.53;53.53
79372;BME280;68914;51.262;6.802;2023-03-29T06:42:42;101199.06;;;18.59;53.71
79372;BME280;68914;51.262;6.802;2023-03-29T06:45:34;101202.81;;;18.58;53.67
79372;BME280;68914;51.262;6.802;2023-03-29T06:48:03;101201.78;;;18.92;53.05
79372;BME280;68914;51.262;6.802;2023-03-29T06:50:30;101190.78;;;18.89;52.66
79372;BME280;68914;51.262;6.802;2023-03-29T06:53:08;101194.16;;;18.84;52.90
79372;BME280;68914;51.262;6.802;2023-03-29T06:55:34;101197.09;;;18.83;52.74
79372;BME280;68914;51.262;6.802;2023-03-29T06:58:16;101193.28;;;18.79;52.88
79372;BME280;68914;51.262;6.802;2023-03-29T07:00:42;101197.81;;;18.78;53.09
79372;BME280;68914;51.262;6.802;2023-03-29T07:03:14;101204.38;;;19.21;52.13
79372;BME280;68914;51.262;6.802;2023-03-29T07:05:47;101212.78;;;19.30;51.33
79372;BME280;68914;51.262;6.802;2023-03-29T07:08:15;101214.84;;;18.89;52.69
79372;BME280;68914;51.262;6.802;2023-03-29T07:10:57;101214.00;;;18.88;52.62
79372;BME280;68914;51.262;6.802;2023-03-29T07:13:29;101215.63;;;18.73;53.02
79372;BME280;68914;51.262;6.802;2023-03-29T07:15:58;101213.19;;;18.71;53.25
79372;BME280;68914;51.262;6.802;2023-03-29T07:18:44;101219.34;;;18.72;53.29
79372;BME280;68914;51.262;6.802;2023-03-29T07:21:19;101220.25;;;18.77;53.20
79372;BME280;68914;51.262;6.802;2023-03-29T07:23:45;101220.47;;;18.76;52.81
79372;BME280;68914;51.262;6.802;2023-03-29T07:26:11;101218.41;;;18.78;53.00
79372;BME280;68914;51.262;6.802;2023-03-29T07:28:37;101220.81;;;18.79;52.81
79372;BME280;68914;51.262;6.802;2023-03-29T07:31:10;101216.63;;;19.17;52.04
79372;BME280;68914;51.262;6.802;2023-03-29T07:33:42;101215.72;;;18.95;52.54
79372;BME280;68914;51.262;6.802;2023-03-29T07:36:10;101217.34;;;18.79;53.01
79372;BME280;68914;51.262;6.802;2023-03-29T07:38:36;101217.09;;;18.80;52.74
79372;BME280;68914;51.262;6.802;2023-03-29T07:41:08;101220.09;;;19.17;51.93
79372;BME280;68914;51.262;6.802;2023-03-29T07:43:48;101212.63;;;19.20;51.89
79372;BME280;68914;51.262;6.802;2023-03-29T07:46:20;101225.44;;;19.17;51.94
79372;BME280;68914;51.262;6.802;2023-03-29T07:48:46;101226.56;;;19.22;51.82
79372;BME280;68914;51.262;6.802;2023-03-29T07:51:13;101231.84;;;19.16;51.92
79372;BME280;68914;51.262;6.802;2023-03-29T07:53:43;101232.41;;;19.19;52.02
79372;BME280;68914;51.262;6.802;2023-03-29T07:56:31;101235.22;;;19.12;51.95
79372;BME280;68914;51.262;6.802;2023-03-29T07:59:23;101233.28;;;19.07;51.87
79372;BME280;68914;51.262;6.802;2023-03-29T08:01:58;101236.34;;;19.16;51.85
79372;BME280;68914;51.262;6.802;2023-03-29T08:04:29;101234.41;;;19.11;52.02
79372;BME280;68914;51.262;6.802;2023-03-29T08:07:14;101237.75;;;19.19;51.81
79372;BME280;68914;51.262;6.802;2023-03-29T08:09:58;101233.38;;;19.12;51.99
79372;BME280;68914;51.262;6.802;2023-03-29T08:12:45;101224.94;;;19.04;52.23
79372;BME280;68914;51.262;6.802;2023-03-29T08:15:13;101225.25;;;19.07;52.32
79372;BME280;68914;51.262;6.802;2023-03-29T08:17:40;101221.84;;;19.12;52.13
79372;BME280;68914;51.262;6.802;2023-03-29T08:20:08;101229.66;;;19.13;52.13
79372;BME280;68914;51.262;6.802;2023-03-29T08:22:37;101229.88;;;19.12;52.19
79372;BME280;68914;51.262;6.802;2023-03-29T08:25:20;101229.72;;;19.19;52.00
79372;BME280;68914;51.262;6.802;2023-03-29T08:27:49;101230.53;;;19.19;51.88
79372;BME280;68914;51.262;6.802;2023-03-29T08:30:24;101232.47;;;19.24;51.50
79372;BME280;68914;51.262;6.802;2023-03-29T08:32:50;101227.91;;;19.24;51.43
79372;BME280;68914;51.262;6.802;2023-03-29T08:35:18;101228.75;;;19.25;51.39
79372;BME280;68914;51.262;6.802;2023-03-29T08:37:57;101224.63;;;19.17;51.94
79372;BME280;68914;51.262;6.802;2023-03-29T08:40:25;101223.19;;;19.09;51.85
79372;BME280;68914;51.262;6.802;2023-03-29T08:48:53;101212.22;;;19.11;52.09
79372;BME280;68914;51.262;6.802;2023-03-29T08:54:39;101211.50;;;18.82;52.76
79372;BME280;68914;51.262;6.802;2023-03-29T08:57:06;101206.69;;;18.67;53.14
79372;BME280;68914;51.262;6.802;2023-03-29T08:59:40;101196.25;;;18.65;53.53
79372;BME280;68914;51.262;6.802;2023-03-29T09:02:15;101195.19;;;18.66;53.68
79372;BME280;68914;51.262;6.802;2023-03-29T09:04:42;101194.06;;;18.62;53.64
79372;BME280;68914;51.262;6.802;2023-03-29T09:07:28;101205.88;;;18.66;53.42
79372;BME280;68914;51.262;6.802;2023-03-29T09:09:54;101199.97;;;18.64;53.49
79372;BME280;68914;51.262;6.802;2023-03-29T09:12:43;101205.88;;;18.66;53.59
79372;BME280;68914;51.262;6.802;2023-03-29T09:15:42;101202.63;;;18.64;53.37
79372;BME280;68914;51.262;6.802;2023-03-29T09:18:40;101207.84;;;18.71;53.27
79372;BME280;68914;51.262;6.802;2023-03-29T09:21:21;101223.75;;;18.78;53.15
79372;BME280;68914;51.262;6.802;2023-03-29T09:24:02;101209.00;;;18.75;53.34
79372;BME280;68914;51.262;6.802;2023-03-29T09:26:47;101216.19;;;18.75;53.33
79372;BME280;68914;51.262;6.802;2023-03-29T09:31:48;101211.50;;;18.82;53.09
79372;BME280;68914;51.262;6.802;2023-03-29T09:34:17;101199.28;;;18.86;52.88
79372;BME280;68914;51.262;6.802;2023-03-29T09:37:02;101196.63;;;18.86;53.10
79372;BME280;68914;51.262;6.802;2023-03-29T09:39:31;101207.03;;;19.04;52.47
79372;BME280;68914;51.262;6.802;2023-03-29T09:42:06;101203.97;;;19.12;52.30
79372;BME280;68914;51.262;6.802;2023-03-29T09:52:44;101204.31;;;18.99;52.57
79372;BME280;68914;51.262;6.802;2023-03-29T09:55:18;101198.63;;;18.96;52.69
79372;BME280;68914;51.262;6.802;2023-03-29T09:58:09;101204.06;;;19.01;52.41
79372;BME280;68914;51.262;6.802;2023-03-29T10:00:38;101196.34;;;19.04;52.13
79372;BME280;68914;51.262;6.802;2023-03-29T10:03:04;101201.00;;;19.09;52.16
79372;BME280;68914;51.262;6.802;2023-03-29T10:05:48;101209.34;;;19.12;52.19
79372;BME280;68914;51.262;6.802;2023-03-29T10:08:21;101195.38;;;19.10;52.28
79372;BME280;68914;51.262;6.802;2023-03-29T10:10:49;101176.41;;;19.12;52.29
79372;BME280;68914;51.262;6.802;2023-03-29T10:13:21;101172.13;;;19.11;51.91
79372;BME280;68914;51.262;6.802;2023-03-29T10:18:29;101167.97;;;19.37;51.46
79372;BME280;68914;51.262;6.802;2023-03-29T10:21:01;101170.25;;;19.28;51.70
79372;BME280;68914;51.262;6.802;2023-03-29T10:23:32;101166.97;;;19.43;51.22
79372;BME280;68914;51.262;6.802;2023-03-29T10:26:00;101162.38;;;19.60;50.98
79372;BME280;68914;51.262;6.802;2023-03-29T10:28:27;101159.06;;;19.53;50.94
79372;BME280;68914;51.262;6.802;2023-03-29T10:30:58;101164.13;;;19.50;51.10
79372;BME280;68914;51.262;6.802;2023-03-29T10:33:29;101154.03;;;19.57;50.86
79372;BME280;68914;51.262;6.802;2023-03-29T10:35:56;101158.41;;;19.63;50.87
79372;BME280;68914;51.262;6.802;2023-03-29T10:38:25;101169.78;;;19.75;50.62
79372;BME280;68914;51.262;6.802;2023-03-29T10:40:54;101172.25;;;19.77;50.10
79372;BME280;68914;51.262;6.802;2023-03-29T10:43:34;101181.00;;;19.72;50.32
79372;BME280;68914;51.262;6.802;2023-03-29T10:46:18;101174.91;;;19.77;50.46
79372;BME280;68914;51.262;6.802;2023-03-29T10:48:46;101175.66;;;19.55;50.63
79372;BME280;68914;51.262;6.802;2023-03-29T10:51:13;101177.53;;;19.55;50.81
79372;BME280;68914;51.262;6.802;2023-03-29T10:53:40;101173.09;;;19.60;50.47
79372;BME280;68914;51.262;6.802;2023-03-29T10:56:28;101162.38;;;19.60;51.08
79372;BME280;68914;51.262;6.802;2023-03-29T11:04:47;101153.44;;;19.72;49.71
79372;BME280;68914;51.262;6.802;2023-03-29T11:10:25;101161.28;;;19.78;50.72
79372;BME280;68914;51.262;6.802;2023-03-29T11:20:51;101150.34;;;19.80;49.96
79372;BME280;68914;51.262;6.802;2023-03-29T11:23:54;101151.06;;;19.75;50.74
79372;BME280;68914;51.262;6.802;2023-03-29T11:34:53;101137.22;;;20.32;49.02
79372;BME280;68914;51.262;6.802;2023-03-29T11:40:27;101130.72;;;19.96;49.63
79372;BME280;68914;51.262;6.802;2023-03-29T11:45:47;101115.84;;;20.10;49.46
79372;BME280;68914;51.262;6.802;2023-03-29T11:56:10;101103.94;;;19.96;49.72
79372;BME280;68914;51.262;6.802;2023-03-29T12:01:16;101108.91;;;19.87;49.92
79372;BME280;68914;51.262;6.802;2023-03-29T12:06:36;101102.25;;;19.63;50.55
79372;BME280;68914;51.262;6.802;2023-03-29T12:11:56;101103.03;;;19.63;50.52
79372;BME280;68914;51.262;6.802;2023-03-29T12:17:02;101094.13;;;19.58;50.80
79372;BME280;68914;51.262;6.802;2023-03-29T12:22:05;101099.63;;;19.68;50.34
79372;BME280;68914;51.262;6.802;2023-03-29T12:38:17;101063.50;;;19.93;49.88
79372;BME280;68914;51.262;6.802;2023-03-29T12:43:39;101065.94;;;19.99;49.45
79372;BME280;68914;51.262;6.802;2023-03-29T12:48:55;101072.16;;;20.05;50.61
79372;BME280;68914;51.262;6.802;2023-03-29T12:54:19;101068.97;;;20.08;50.64
79372;BME280;68914;51.262;6.802;2023-03-29T12:59:43;101073.47;;;19.75;51.79
79372;BME280;68914;51.262;6.802;2023-03-29T13:04:49;101066.94;;;20.95;48.20
79372;BME280;68914;51.262;6.802;2023-03-29T13:09:56;101066.81;;;21.27;47.51
79372;BME280;68914;51.262;6.802;2023-03-29T13:15:03;101051.56;;;21.38;47.19
79372;BME280;68914;51.262;6.802;2023-03-29T13:30:45;101045.72;;;20.13;50.66
79372;BME280;68914;51.262;6.802;2023-03-29T13:41:42;101035.31;;;20.17;51.51
79372;BME280;68914;51.262;6.802;2023-03-29T13:46:46;101027.13;;;20.34;51.33
79372;BME280;68914;51.262;6.802;2023-03-29T13:57:22;101002.81;;;20.35;51.90
79372;BME280;68914;51.262;6.802;2023-03-29T14:02:57;100988.19;;;20.16;51.91
79372;BME280;68914;51.262;6.802;2023-03-29T14:08:05;100980.66;;;20.08;52.10
79372;BME280;68914;51.262;6.802;2023-03-29T14:13:16;100978.22;;;20.06;52.66
79372;BME280;68914;51.262;6.802;2023-03-29T14:18:20;100977.31;;;20.28;51.70
79372;BME280;68914;51.262;6.802;2023-03-29T14:23:23;100966.16;;;20.04;52.77
79372;BME280;68914;51.262;6.802;2023-03-29T14:28:27;100966.63;;;19.96;52.83
79372;BME280;68914;51.262;6.802;2023-03-29T14:33:30;100954.78;;;19.86;53.35
79372;BME280;68914;51.262;6.802;2023-03-29T14:38:34;100947.25;;;19.83;53.45
79372;BME280;68914;51.262;6.802;2023-03-29T14:43:36;100952.56;;;19.78;53.03
79372;BME280;68914;51.262;6.802;2023-03-29T14:48:37;100957.31;;;19.71;52.92
79372;BME280;68914;51.262;6.802;2023-03-29T14:53:39;100943.38;;;19.64;53.45
79372;BME280;68914;51.262;6.802;2023-03-29T14:58:44;100936.38;;;19.63;53.65
79372;BME280;68914;51.262;6.802;2023-03-29T15:04:04;100938.50;;;19.61;53.54
79372;BME280;68914;51.262;6.802;2023-03-29T15:09:08;100924.13;;;19.67;53.19
79372;BME280;68914;51.262;6.802;2023-03-29T15:14:15;100918.56;;;19.74;52.73
79372;BME280;68914;51.262;6.802;2023-03-29T15:19:19;100913.72;;;19.71;52.87
79372;BME280;68914;51.262;6.802;2023-03-29T15:24:30;100902.91;;;19.60;52.94
79372;BME280;68914;51.262;6.802;2023-03-29T15:29:36;100896.97;;;19.53;53.64
79372;BME280;68914;51.262;6.802;2023-03-29T15:34:40;100885.88;;;19.39;53.37
79372;BME280;68914;51.262;6.802;2023-03-29T15:39:42;100886.44;;;19.41;54.12
79372;BME280;68914;51.262;6.802;2023-03-29T15:44:43;100874.63;;;19.37;54.23
79372;BME280;68914;51.262;6.802;2023-03-29T15:49:45;100865.56;;;19.38;54.26
79372;BME280;68914;51.262;6.802;2023-03-29T15:54:46;100851.91;;;19.40;53.85
79372;BME280;68914;51.262;6.802;2023-03-29T15:59:47;100836.13;;;19.38;54.16
79372;BME280;68914;51.262;6.802;2023-03-29T16:04:48;100827.63;;;19.41;54.41
79372;BME280;68914;51.262;6.802;2023-03-29T16:09:48;100827.03;;;19.39;53.97
79372;BME280;68914;51.262;6.802;2023-03-29T16:14:50;100818.78;;;19.41;53.82
79372;BME280;68914;51.262;6.802;2023-03-29T16:19:50;100819.13;;;19.50;53.78
79372;BME280;68914;51.262;6.802;2023-03-29T16:24:51;100814.47;;;19.40;54.06
79372;BME280;68914;51.262;6.802;2023-03-29T16:29:52;100797.72;;;19.50;53.89
79372;BME280;68914;51.262;6.802;2023-03-29T16:34:52;100788.91;;;19.49;53.53
79372;BME280;68914;51.262;6.802;2023-03-29T16:39:53;100778.19;;;19.49;53.61
79372;BME280;68914;51.262;6.802;2023-03-29T16:44:54;100779.22;;;19.43;54.04
79372;BME280;68914;51.262;6.802;2023-03-29T16:49:55;100772.75;;;19.34;53.63
79372;BME280;68914;51.262;6.802;2023-03-29T16:54:56;100772.91;;;19.22;54.58
79372;BME280;68914;51.262;6.802;2023-03-29T16:59:57;100764.59;;;19.19;54.80
79372;BME280;68914;51.262;6.802;2023-03-29T17:04:57;100767.28;;;19.19;54.56
79372;BME280;68914;51.262;6.802;2023-03-29T17:09:58;100752.59;;;19.21;54.83
79372;BME280;68914;51.262;6.802;2023-03-29T17:14:58;100755.69;;;19.08;55.13
79372;BME280;68914;51.262;6.802;2023-03-29T17:19:59;100765.09;;;19.15;55.22
79372;BME280;68914;51.262;6.802;2023-03-29T17:25:00;100758.06;;;19.04;55.46
79372;BME280;68914;51.262;6.802;2023-03-29T17:30:04;100762.88;;;19.02;55.73
79372;BME280;68914;51.262;6.802;2023-03-29T17:35:06;100756.16;;;19.00;55.26